JA5159 RJTL-RJSD
Flight info
| Callsign | JA5159 |
|---|---|
| Flight time | N/A |
| Altitude | 10000 |
| Route | RJTL/01 N0342F160 JDT1 JDT DCT NIKKO Y88 AKAGI V15 GTC R211 BASIN DCT RJSD/10 |
| Aircraft | COL4/M-SDE2E3FGRY/H |
Departure
| Time | N/A |
|---|---|
| Airport | JMSDF Shimofusa Air Base (RJTL) |
Arrival
| Time | 2026-05-05 22:36 |
|---|---|
| Airport | Sado Airport (RJSD) |
| Time | Latitude | Longitude | Altitude | Speed | Heading |
|---|---|---|---|---|---|
| 2026-05-05 21:56 | 36.51449 | 138.99013 | 5127 ft | 166 kts | 278° |
| 2026-05-05 21:56 | 36.51658 | 138.97609 | 5288 ft | 164 kts | 279° |
| 2026-05-05 21:56 | 36.51919 | 138.96249 | 5456 ft | 164 kts | 287° |
| 2026-05-05 21:57 | 36.52305 | 138.94916 | 5627 ft | 163 kts | 287° |
| 2026-05-05 21:57 | 36.52684 | 138.93579 | 5804 ft | 164 kts | 288° |
| 2026-05-05 21:57 | 36.53071 | 138.92238 | 5985 ft | 164 kts | 288° |
| 2026-05-05 21:57 | 36.53617 | 138.90986 | 6157 ft | 166 kts | 302° |
| 2026-05-05 21:58 | 36.54265 | 138.89809 | 6329 ft | 164 kts | 302° |
| 2026-05-05 21:58 | 36.54912 | 138.88642 | 6518 ft | 164 kts | 302° |
| 2026-05-05 21:58 | 36.55568 | 138.87482 | 6687 ft | 164 kts | 303° |
| 2026-05-05 21:58 | 36.56220 | 138.86323 | 6844 ft | 162 kts | 303° |
| 2026-05-05 21:59 | 36.56877 | 138.85195 | 7015 ft | 160 kts | 302° |
| 2026-05-05 21:59 | 36.57524 | 138.84069 | 7180 ft | 160 kts | 302° |
| 2026-05-05 21:59 | 36.58178 | 138.82942 | 7346 ft | 161 kts | 302° |
| 2026-05-05 21:59 | 36.58827 | 138.81811 | 7510 ft | 160 kts | 302° |
| 2026-05-05 22:00 | 36.59490 | 138.80689 | 7673 ft | 161 kts | 306° |
| 2026-05-05 22:00 | 36.60371 | 138.79816 | 7830 ft | 163 kts | 324° |
| 2026-05-05 22:00 | 36.61370 | 138.79174 | 7995 ft | 165 kts | 349° |
| 2026-05-05 22:00 | 36.62516 | 138.79220 | 8154 ft | 164 kts | 3° |
| 2026-05-05 22:01 | 36.63650 | 138.79317 | 8327 ft | 164 kts | 4° |
| 2026-05-05 22:01 | 36.64786 | 138.79426 | 8494 ft | 163 kts | 3° |
| 2026-05-05 22:01 | 36.65912 | 138.79535 | 8661 ft | 161 kts | 3° |
| 2026-05-05 22:01 | 36.67020 | 138.79645 | 8825 ft | 159 kts | 4° |
| 2026-05-05 22:02 | 36.68120 | 138.79747 | 9000 ft | 158 kts | 4° |
| 2026-05-05 22:02 | 36.69210 | 138.79847 | 9170 ft | 156 kts | 4° |
| 2026-05-05 22:02 | 36.70281 | 138.79948 | 9333 ft | 151 kts | 0° |
| 2026-05-05 22:02 | 36.71274 | 138.79660 | 9500 ft | 145 kts | 339° |
| 2026-05-05 22:03 | 36.72219 | 138.79291 | 9670 ft | 140 kts | 339° |
| 2026-05-05 22:03 | 36.73134 | 138.78919 | 9775 ft | 138 kts | 339° |
| 2026-05-05 22:03 | 36.74090 | 138.78536 | 9775 ft | 150 kts | 340° |
| 2026-05-05 22:03 | 36.75117 | 138.78123 | 9777 ft | 159 kts | 342° |
| 2026-05-05 22:04 | 36.76197 | 138.77771 | 9783 ft | 162 kts | 342° |
| 2026-05-05 22:04 | 36.77299 | 138.77393 | 9778 ft | 166 kts | 342° |
| 2026-05-05 22:04 | 36.78408 | 138.77001 | 9779 ft | 165 kts | 337° |
| 2026-05-05 22:04 | 36.79509 | 138.76525 | 9771 ft | 169 kts | 338° |
| 2026-05-05 22:05 | 36.80616 | 138.76029 | 9770 ft | 170 kts | 337° |
| 2026-05-05 22:05 | 36.81741 | 138.75550 | 9772 ft | 171 kts | 338° |
| 2026-05-05 22:05 | 36.82852 | 138.75062 | 9760 ft | 171 kts | 338° |
| 2026-05-05 22:05 | 36.83979 | 138.74557 | 9767 ft | 170 kts | 337° |
| 2026-05-05 22:06 | 36.85079 | 138.74074 | 9763 ft | 170 kts | 338° |
| 2026-05-05 22:06 | 36.86200 | 138.73594 | 9752 ft | 170 kts | 338° |
| 2026-05-05 22:06 | 36.87314 | 138.73099 | 9752 ft | 170 kts | 337° |
| 2026-05-05 22:06 | 36.88436 | 138.72602 | 9757 ft | 171 kts | 337° |
| 2026-05-05 22:07 | 36.89556 | 138.72109 | 9751 ft | 170 kts | 338° |
| 2026-05-05 22:07 | 36.90669 | 138.71621 | 9755 ft | 169 kts | 338° |
| 2026-05-05 22:07 | 36.91783 | 138.71122 | 9755 ft | 171 kts | 338° |
| 2026-05-05 22:07 | 36.92907 | 138.70625 | 9743 ft | 171 kts | 337° |
| 2026-05-05 22:08 | 36.94035 | 138.70137 | 9745 ft | 172 kts | 338° |
| 2026-05-05 22:08 | 36.95165 | 138.69649 | 9742 ft | 172 kts | 338° |
| 2026-05-05 22:08 | 36.96297 | 138.69160 | 9745 ft | 171 kts | 337° |
| 2026-05-05 22:08 | 36.97426 | 138.68666 | 9750 ft | 172 kts | 337° |
| 2026-05-05 22:09 | 36.98559 | 138.68180 | 9746 ft | 172 kts | 338° |
| 2026-05-05 22:09 | 36.99727 | 138.67849 | 9741 ft | 173 kts | 349° |
| 2026-05-05 22:09 | 37.00906 | 138.67576 | 9743 ft | 172 kts | 345° |
| 2026-05-05 22:09 | 37.02082 | 138.67281 | 9743 ft | 173 kts | 346° |
| 2026-05-05 22:10 | 37.03257 | 138.66978 | 9743 ft | 172 kts | 345° |
| 2026-05-05 22:10 | 37.04430 | 138.66676 | 9745 ft | 172 kts | 345° |
| 2026-05-05 22:10 | 37.05608 | 138.66374 | 9738 ft | 173 kts | 345° |
| 2026-05-05 22:10 | 37.06794 | 138.66068 | 9740 ft | 174 kts | 345° |
| 2026-05-05 22:11 | 37.07975 | 138.65760 | 9737 ft | 173 kts | 345° |
| 2026-05-05 22:11 | 37.09156 | 138.65462 | 9735 ft | 173 kts | 345° |
| 2026-05-05 22:11 | 37.10331 | 138.65154 | 9735 ft | 172 kts | 346° |
| 2026-05-05 22:11 | 37.11508 | 138.64855 | 9736 ft | 173 kts | 345° |
| 2026-05-05 22:12 | 37.12683 | 138.64553 | 9726 ft | 172 kts | 346° |
| 2026-05-05 22:12 | 37.13850 | 138.64256 | 9727 ft | 171 kts | 345° |
| 2026-05-05 22:12 | 37.15018 | 138.63964 | 9726 ft | 171 kts | 346° |
| 2026-05-05 22:12 | 37.16190 | 138.63664 | 9721 ft | 172 kts | 345° |
| 2026-05-05 22:13 | 37.17361 | 138.63367 | 9721 ft | 172 kts | 345° |
| 2026-05-05 22:13 | 37.18528 | 138.63070 | 9717 ft | 170 kts | 345° |
| 2026-05-05 22:13 | 37.19695 | 138.62781 | 9717 ft | 171 kts | 345° |
| 2026-05-05 22:13 | 37.20866 | 138.62480 | 9718 ft | 172 kts | 345° |
| 2026-05-05 22:14 | 37.22039 | 138.62184 | 9715 ft | 172 kts | 345° |
| 2026-05-05 22:14 | 37.23209 | 138.61884 | 9714 ft | 171 kts | 345° |
| 2026-05-05 22:14 | 37.24377 | 138.61594 | 9712 ft | 171 kts | 346° |
| 2026-05-05 22:14 | 37.25539 | 138.61302 | 9713 ft | 170 kts | 345° |
| 2026-05-05 22:15 | 37.26699 | 138.61010 | 9715 ft | 170 kts | 345° |
| 2026-05-05 22:15 | 37.27860 | 138.60718 | 9714 ft | 170 kts | 345° |
| 2026-05-05 22:15 | 37.29021 | 138.60425 | 9714 ft | 170 kts | 345° |
| 2026-05-05 22:15 | 37.30187 | 138.60131 | 9716 ft | 171 kts | 345° |
| 2026-05-05 22:16 | 37.31341 | 138.59839 | 9717 ft | 172 kts | 345° |
| 2026-05-05 22:16 | 37.32509 | 138.59544 | 9713 ft | 171 kts | 345° |
| 2026-05-05 22:16 | 37.33691 | 138.59242 | 9713 ft | 171 kts | 345° |
| 2026-05-05 22:16 | 37.34861 | 138.58943 | 9715 ft | 172 kts | 345° |
| 2026-05-05 22:17 | 37.36016 | 138.58649 | 9716 ft | 172 kts | 345° |
| 2026-05-05 22:17 | 37.37201 | 138.58352 | 9712 ft | 171 kts | 345° |
| 2026-05-05 22:17 | 37.38356 | 138.58065 | 9713 ft | 171 kts | 345° |
| 2026-05-05 22:17 | 37.39527 | 138.57774 | 9713 ft | 172 kts | 345° |
| 2026-05-05 22:18 | 37.40716 | 138.57479 | 9710 ft | 172 kts | 345° |
| 2026-05-05 22:18 | 37.41872 | 138.57193 | 9710 ft | 171 kts | 345° |
| 2026-05-05 22:18 | 37.43044 | 138.56906 | 9712 ft | 172 kts | 345° |
| 2026-05-05 22:18 | 37.44216 | 138.56624 | 9712 ft | 172 kts | 345° |
| 2026-05-05 22:19 | 37.45288 | 138.56368 | 9713 ft | 169 kts | 345° |
| 2026-05-05 22:19 | 37.46447 | 138.56093 | 9707 ft | 170 kts | 345° |
| 2026-05-05 22:19 | 37.47611 | 138.55816 | 9706 ft | 170 kts | 345° |
| 2026-05-05 22:19 | 37.48777 | 138.55537 | 9706 ft | 171 kts | 345° |
| 2026-05-05 22:20 | 37.49943 | 138.55257 | 9709 ft | 171 kts | 345° |
| 2026-05-05 22:20 | 37.51112 | 138.54977 | 9710 ft | 171 kts | 345° |
| 2026-05-05 22:20 | 37.52280 | 138.54697 | 9704 ft | 171 kts | 345° |
| 2026-05-05 22:20 | 37.53450 | 138.54416 | 9704 ft | 171 kts | 345° |
| 2026-05-05 22:21 | 37.54619 | 138.54134 | 9705 ft | 171 kts | 345° |
| 2026-05-05 22:21 | 37.55789 | 138.53852 | 9705 ft | 171 kts | 345° |
| 2026-05-05 22:21 | 37.56959 | 138.53572 | 9705 ft | 171 kts | 345° |
| 2026-05-05 22:21 | 37.58129 | 138.53290 | 9705 ft | 171 kts | 345° |
| 2026-05-05 22:22 | 37.59298 | 138.53007 | 9710 ft | 171 kts | 345° |
| 2026-05-05 22:22 | 37.60474 | 138.52737 | 9707 ft | 172 kts | 345° |
| 2026-05-05 22:22 | 37.61652 | 138.52470 | 9707 ft | 172 kts | 345° |
| 2026-05-05 22:22 | 37.62829 | 138.52204 | 9707 ft | 172 kts | 345° |
| 2026-05-05 22:23 | 37.64007 | 138.51938 | 9710 ft | 172 kts | 345° |
| 2026-05-05 22:23 | 37.65187 | 138.51673 | 9708 ft | 172 kts | 345° |
| 2026-05-05 22:23 | 37.66366 | 138.51406 | 9705 ft | 172 kts | 345° |
| 2026-05-05 22:23 | 37.67545 | 138.51139 | 9705 ft | 172 kts | 345° |
| 2026-05-05 22:24 | 37.68724 | 138.50872 | 9705 ft | 172 kts | 345° |
| 2026-05-05 22:24 | 37.69902 | 138.50606 | 9705 ft | 172 kts | 345° |
| 2026-05-05 22:24 | 37.71082 | 138.50338 | 9705 ft | 172 kts | 345° |
| 2026-05-05 22:24 | 37.72260 | 138.50070 | 9705 ft | 172 kts | 345° |
| 2026-05-05 22:25 | 37.73439 | 138.49802 | 9705 ft | 172 kts | 345° |
| 2026-05-05 22:25 | 37.74623 | 138.49534 | 9648 ft | 175 kts | 345° |
| 2026-05-05 22:25 | 37.75848 | 138.49251 | 9526 ft | 182 kts | 345° |
| 2026-05-05 22:25 | 37.77113 | 138.48956 | 9412 ft | 188 kts | 345° |
| 2026-05-05 22:26 | 37.77971 | 138.48762 | 9333 ft | 191 kts | 345° |
| 2026-05-05 22:26 | 37.81231 | 138.48012 | 9041 ft | 200 kts | 345° |
| 2026-05-05 22:26 | 37.82611 | 138.47691 | 8921 ft | 203 kts | 345° |
| 2026-05-05 22:27 | 37.84011 | 138.47365 | 8801 ft | 206 kts | 345° |
| 2026-05-05 22:27 | 37.85425 | 138.47035 | 8677 ft | 207 kts | 345° |
| 2026-05-05 22:27 | 37.86842 | 138.46702 | 8550 ft | 208 kts | 345° |
| 2026-05-05 22:27 | 37.88251 | 138.46320 | 8428 ft | 206 kts | 338° |
| 2026-05-05 22:28 | 37.89563 | 138.45609 | 8230 ft | 208 kts | 329° |
| 2026-05-05 22:28 | 37.90789 | 138.44841 | 7911 ft | 185 kts | 328° |
| 2026-05-05 22:28 | 37.91571 | 138.44346 | 7695 ft | 189 kts | 328° |
| 2026-05-05 22:28 | 37.92723 | 138.43626 | 7372 ft | 180 kts | 328° |
| 2026-05-05 22:29 | 37.94151 | 138.42750 | 7173 ft | 160 kts | 328° |
| 2026-05-05 22:29 | 37.95171 | 138.42154 | 6846 ft | 165 kts | 328° |
| 2026-05-05 22:29 | 37.96203 | 138.41566 | 6592 ft | 156 kts | 328° |
| 2026-05-05 22:29 | 37.97135 | 138.41044 | 6574 ft | 137 kts | 328° |
| 2026-05-05 22:30 | 37.97961 | 138.40607 | 6570 ft | 122 kts | 328° |
| 2026-05-05 22:30 | 37.98501 | 138.40324 | 6401 ft | 127 kts | 328° |
| 2026-05-05 22:30 | 37.99329 | 138.39896 | 6192 ft | 129 kts | 328° |
| 2026-05-05 22:30 | 38.00031 | 138.39298 | 5970 ft | 114 kts | 288° |
| 2026-05-05 22:31 | 38.00086 | 138.38358 | 5719 ft | 109 kts | 263° |
| 2026-05-05 22:31 | 38.00073 | 138.37370 | 5455 ft | 114 kts | 263° |
| 2026-05-05 22:31 | 38.00037 | 138.36349 | 5205 ft | 117 kts | 263° |
| 2026-05-05 22:31 | 38.00060 | 138.35316 | 4935 ft | 122 kts | 282° |
| 2026-05-05 22:32 | 38.00730 | 138.34600 | 4655 ft | 146 kts | 336° |
| 2026-05-05 22:32 | 38.01783 | 138.34702 | 4382 ft | 155 kts | 4° |
| 2026-05-05 22:32 | 38.02842 | 138.34952 | 4109 ft | 155 kts | 5° |
| 2026-05-05 22:32 | 38.03895 | 138.35245 | 3831 ft | 157 kts | 17° |
| 2026-05-05 22:33 | 38.04746 | 138.36141 | 3568 ft | 162 kts | 44° |
| 2026-05-05 22:33 | 38.05544 | 138.37147 | 3292 ft | 160 kts | 42° |
| 2026-05-05 22:33 | 38.06322 | 138.38142 | 3019 ft | 158 kts | 46° |
| 2026-05-05 22:33 | 38.07110 | 138.39107 | 2747 ft | 157 kts | 44° |
| 2026-05-05 22:34 | 38.07905 | 138.40077 | 2473 ft | 158 kts | 44° |
| 2026-05-05 22:34 | 38.08295 | 138.41278 | 2221 ft | 148 kts | 103° |
| 2026-05-05 22:34 | 38.07617 | 138.42128 | 1898 ft | 141 kts | 167° |
| 2026-05-05 22:34 | 38.06679 | 138.42370 | 1591 ft | 136 kts | 173° |
| 2026-05-05 22:35 | 38.05729 | 138.42421 | 1047 ft | 141 kts | 193° |
| 2026-05-05 22:35 | 38.04850 | 138.42626 | 818 ft | 127 kts | 133° |
| 2026-05-05 22:35 | 38.04810 | 138.43694 | 637 ft | 124 kts | 58° |
| 2026-05-05 22:35 | 38.05513 | 138.44100 | 432 ft | 111 kts | 347° |
| 2026-05-05 22:36 | 38.05850 | 138.43367 | 284 ft | 111 kts | 271° |
| 2026-05-05 22:36 | 38.05950 | 138.42385 | 138 ft | 105 kts | 276° |
| 2026-05-05 22:36 | 38.06037 | 138.41550 | 72 ft | 79 kts | 275° |
| 2026-05-05 22:36 | 38.06081 | 138.41119 | 86 ft | 33 kts | 277° |
| 2026-05-05 22:37 | 38.06094 | 138.41002 | 88 ft | 7 kts | 276° |
| 2026-05-05 22:37 | 38.06098 | 138.40950 | 91 ft | 5 kts | 274° |
| 2026-05-05 22:37 | 38.06101 | 138.40900 | 92 ft | 6 kts | 298° |
| 2026-05-05 22:37 | 38.06118 | 138.40863 | 94 ft | 3 kts | 323° |
| 2026-05-05 22:38 | 38.06129 | 138.40860 | 95 ft | 6 kts | 357° |
| 2026-05-05 22:38 | 38.06164 | 138.40858 | 93 ft | 0 kts | 5° |
| 2026-05-05 22:39 | 38.06187 | 138.40860 | 93 ft | 1 kts | 5° |
| 2026-05-05 22:39 | 38.06188 | 138.40860 | 93 ft | 0 kts | 5° |
| 2026-05-05 22:39 | 38.06189 | 138.40860 | 93 ft | 2 kts | 5° |
| 2026-05-05 22:39 | 38.06196 | 138.40852 | 93 ft | 0 kts | 267° |
| 2026-05-05 22:50 | 38.06196 | 138.40846 | 93 ft | 0 kts | 261° |